Home > Products > Valid Products > TAF

000
FTUS45 KTWC 181700
TAFTUS
TAF
KTUS 181727Z 1818/1918 24006KT P6SM BKN040 BKN080
     FM182200 30007KT P6SM VCSH SCT050 BKN080
     FM190200 VRB03KT P6SM SCT080 BKN110
     FM190600 15005KT P6SM BKN010 OVC030
      TEMPO 1906/1910 5SM BR BKN005
     FM191400 15005KT P6SM FEW020 SCT050=



000
FTUS45 KTWC 181700
TAFOLS
TAF
KOLS 181727Z 1818/1918 24008KT P6SM FEW015 SCT025 OVC050
     FM182000 26008KT P6SM SCT030 BKN050
     FM190100 23005KT P6SM FEW040 SCT060 BKN090
     FM190600 14005KT 4SM BR BKN005 OVC010
      TEMPO 1906/1910 2SM -SHRA BR OVC005
     FM191500 VRB03KT P6SM FEW010 BKN030=



000
FTUS45 KTWC 181700
TAFDUG
TAF
KDUG 181727Z 1818/1918 20010G17KT 5SM -RA BR BKN020 OVC040
      TEMPO 1818/1820 3SM -RA BR SCT010 OVC015
     FM182100 24010KT P6SM -SHRA SCT025 BKN050
     FM190200 VRB03KT P6SM SCT025 BKN050 OVC080
     FM190600 VRB04KT 3SM BR BKN005 OVC010
      TEMPO 1906/1910 2SM -SHRA BR OVC004
     FM191500 18005KT P6SM SCT010 BKN030=



000
FTUS45 KTWC 181700
TAFOLS
TAF
KOLS 181727Z 1818/1918 24008KT P6SM FEW015 SCT025 OVC050
     FM182000 26008KT P6SM SCT030 BKN050
     FM190100 23005KT P6SM FEW040 SCT060 BKN090
     FM190600 14005KT 4SM BR BKN005 OVC010
      TEMPO 1906/1910 2SM -SHRA BR OVC005
     FM191500 VRB03KT P6SM FEW010 BKN030=



000
FTUS45 KTWC 181600 AAB
TAFOLS
TAF AMD
KOLS 181610Z 1816/1912 24008KT P6SM FEW015 SCT025 OVC050
      TEMPO 1816/1818 5SM BR BKN002 OVC010
     FM182000 26008KT P6SM SCT030 BKN050
     FM190100 23005KT P6SM FEW040 SCT060 BKN090=



000
FTUS45 KTWC 181600 AAB
TAFOLS
TAF AMD
KOLS 181610Z 1816/1912 24008KT P6SM FEW015 SCT025 OVC050
      TEMPO 1816/1818 5SM BR BKN002 OVC010
     FM182000 26008KT P6SM SCT030 BKN050
     FM190100 23005KT P6SM FEW040 SCT060 BKN090=



000
FTUS45 KTWC 181600 AAA
TAFDUG
TAF AMD
KDUG 181609Z 1816/1912 13011KT 5SM -SHRA BR FEW007 BKN015 OVC030
      TEMPO 1816/1818 2SM BR BKN006 OVC013
     FM181800 20010G17KT P6SM VCSH SCT015 OVC040
     FM182100 24010KT P6SM -SHRA SCT025 BKN050
     FM190200 VRB03KT P6SM SCT025 BKN050 OVC080=



000
FTUS45 KTWC 181600 AAA
TAFDUG
TAF AMD
KDUG 181609Z 1816/1912 13011KT 5SM -SHRA BR FEW007 BKN015 OVC030
      TEMPO 1816/1818 2SM BR BKN006 OVC013
     FM181800 20010G17KT P6SM VCSH SCT015 OVC040
     FM182100 24010KT P6SM -SHRA SCT025 BKN050
     FM190200 VRB03KT P6SM SCT025 BKN050 OVC080=



000
FTUS45 KTWC 181500 AAA
TAFOLS
TAF AMD
KOLS 181548Z 1816/1912 24008KT P6SM FEW015 SCT025 OVC050
      TEMPO 1815/1817 5SM BR BKN005 OVC010
     FM182000 26008KT P6SM SCT030 BKN050
     FM190100 23005KT P6SM FEW040 SCT060 BKN090=



000
FTUS45 KTWC 181500 AAA
TAFOLS
TAF AMD
KOLS 181548Z 1816/1912 24008KT P6SM FEW015 SCT025 OVC050
      TEMPO 1815/1817 5SM BR BKN005 OVC010
     FM182000 26008KT P6SM SCT030 BKN050
     FM190100 23005KT P6SM FEW040 SCT060 BKN090=



000
FTUS45 KTWC 181100
TAFTUS
TAF
KTUS 181139Z 1812/1912 33004KT 6SM -SHRA BR FEW020 OVC040
      TEMPO 1812/1814 4SM BR FEW015 OVC035
     FM181400 VRB04KT P6SM SCT040 OVC070
     FM181800 24006KT P6SM FEW040 BKN080
     FM182200 30007KT P6SM VCSH SCT050 BKN080
     FM190200 VRB03KT P6SM SCT080 BKN110=



000
FTUS45 KTWC 181100
TAFDUG
TAF
KDUG 181139Z 1812/1912 13011KT 3SM -SHRA BR FEW007 BKN015 OVC030
      TEMPO 1812/1814 2SM BR BKN006 OVC013
     FM181600 20010G17KT P6SM VCSH SCT015 OVC040
     FM182100 24010KT P6SM -SHRA SCT025 BKN050
     FM190200 VRB03KT P6SM SCT025 BKN050 OVC080=



000
FTUS45 KTWC 181100
TAFOLS
TAF
KOLS 181139Z 1812/1912 VRB03KT 4SM -SHRA BR SCT006 BKN010
      TEMPO 1812/1814 2SM -SHRA BR BKN005 OVC010
     FM181400 24008KT P6SM FEW015 SCT025 OVC050
     FM182000 26008KT P6SM -SHRA SCT030 BKN050
     FM180100 23005KT P6SM FEW040 SCT060 BKN090=



000
FTUS45 KTWC 181100
TAFOLS
TAF
KOLS 181139Z 1812/1912 VRB03KT 4SM -SHRA BR SCT006 BKN010
      TEMPO 1812/1814 2SM -SHRA BR BKN005 OVC010
     FM181400 24008KT P6SM FEW015 SCT025 OVC050
     FM182000 26008KT P6SM -SHRA SCT030 BKN050
     FM180100 23005KT P6SM FEW040 SCT060 BKN090=



000
FTUS45 KTWC 180800 AAA
TAFOLS
TAF AMD
KOLS 180851Z 1809/1906 16004KT 5SM -SHRA SCT010 OVC020
      TEMPO 1809/1812 3SM -SHRA BR OVC010
     FM181300 22010KT P6SM -SHRA SCT025 OVC050
     FM181800 26008KT P6SM SCT030 BKN050=



000
FTUS45 KTWC 180500
TAFOLS
TAF
KOLS 180520Z 1806/1906 VRB03KT 5SM -SHRA SCT015 OVC050
      TEMPO 1806/1810 2SM SHRA OVC015
     FM181300 22010KT P6SM -SHRA SCT025 OVC050
     FM181800 26008KT P6SM SCT030 BKN050=



000
FTUS45 KTWC 180500
TAFOLS
TAF
KOLS 180520Z 1806/1906 VRB03KT 5SM -SHRA SCT015 OVC050
      TEMPO 1806/1810 2SM SHRA OVC015
     FM181300 22010KT P6SM -SHRA SCT025 OVC050
     FM181800 26008KT P6SM SCT030 BKN050=



000
FTUS45 KTWC 180500
TAFDUG
TAF
KDUG 180520Z 1806/1906 13010KT P6SM -SHRA SCT015 OVC040
      TEMPO 1806/1810 2SM SHRA OVC015
     FM181600 21012G18KT P6SM -SHRA SCT015 OVC040
     FM190200 VRB03KT P6SM SCT025 BKN050=



000
FTUS45 KTWC 180500
TAFTUS
TAF
KTUS 180520Z 1806/1906 10011KT P6SM SCT050 OVC080
     FM181300 16008KT P6SM SCT040 OVC070
     FM181800 27008KT P6SM SCT040 BKN080=



000
FTUS45 KTWC 180500 AAB
TAFTUS
TAF AMD
KTUS 180508Z 1805/1824 10011KT P6SM SCT050 OVC080
     FM181300 16008KT P6SM SCT030 OVC070
     FM181800 27008KT P6SM SCT035 BKN070=



000
FTUS45 KTWC 180300 AAA
TAFTUS
TAF AMD
KTUS 180349Z 1804/1824 10011KT P6SM SCT050 OVC080
     FM181300 23010G18KT P6SM SCT025 OVC060
     FM181800 27012G18KT P6SM SCT035 BKN060=



000
FTUS45 KTWC 180300 AAA
TAFDUG
TAF AMD
KDUG 180345Z 1804/1824 10015KT P6SM -SHRA SCT020 BKN030
     FM180600 14008KT 4SM -SHRA BKN020 OVC040
     FM181600 21012G18KT P6SM -SHRA SCT020 OVC050=



000
FTUS45 KTWC 180300 AAB
TAFOLS
TAF AMD
KOLS 180319Z 1803/1824 15008KT 4SM -SHRA OVC050
      TEMPO 1803/1806 2SM +SHRA BR SCT040 OVC060
     FM180600 16014G22KT 5SM -SHRA SCT020 OVC050
     FM181300 22012G18KT P6SM -SHRA SCT025 OVC050
     FM181800 21010KT P6SM SCT030 BKN050=



000
FTUS45 KTWC 180300 AAB
TAFOLS
TAF AMD
KOLS 180319Z 1803/1824 15008KT 4SM -SHRA OVC050
      TEMPO 1803/1806 2SM +SHRA BR SCT040 OVC060
     FM180600 16014G22KT 5SM -SHRA SCT020 OVC050
     FM181300 22012G18KT P6SM -SHRA SCT025 OVC050
     FM181800 21010KT P6SM SCT030 BKN050=



000
FTUS45 KTWC 172300 AAA
TAFOLS
TAF AMD
KOLS 172333Z 1800/1824 15008KT 4SM -SHRA FEW050 OVC080
      TEMPO 1800/1802 1SM +SHRA SCT030 OVC050
     FM180600 16014G22KT 5SM -SHRA SCT020 OVC050
     FM181300 22012G18KT P6SM -SHRA SCT025 OVC050
     FM181800 21010KT P6SM SCT030 BKN050=



000
FTUS45 KTWC 172300 AAA
TAFOLS
TAF AMD
KOLS 172333Z 1800/1824 15008KT 4SM -SHRA FEW050 OVC080
      TEMPO 1800/1802 1SM +SHRA SCT030 OVC050
     FM180600 16014G22KT 5SM -SHRA SCT020 OVC050
     FM181300 22012G18KT P6SM -SHRA SCT025 OVC050
     FM181800 21010KT P6SM SCT030 BKN050=



000
FTUS45 KTWC 172300 AAA
TAFOLS
TAF AMD
KOLS 172330Z 1800/1824 15008KT 5SM -SHRA FEW050 OVC080
      TEMPO 1800/1802 2SM +SHRA SCT030 OVC060
     FM180600 16014G22KT 5SM -SHRA SCT020 OVC050
     FM181300 22012G18KT P6SM -SHRA SCT025 OVC050
     FM181800 21010KT P6SM SCT030 BKN050=



000
FTUS45 KTWC 172300 AAA
TAFOLS
TAF AMD
KOLS 172330Z 1800/1824 15008KT 5SM -SHRA FEW050 OVC080
      TEMPO 1800/1802 2SM +SHRA SCT030 OVC060
     FM180600 16014G22KT 5SM -SHRA SCT020 OVC050
     FM181300 22012G18KT P6SM -SHRA SCT025 OVC050
     FM181800 21010KT P6SM SCT030 BKN050=



000
FTUS45 KTWC 172300
TAFTUS
TAF
KTUS 172325Z 1800/1824 12011KT P6SM SCT030 BKN050 OVC090
     FM180400 14014G22KT P6SM -SHRA SCT025 OVC050
     FM181300 23010G18KT P6SM -SHRA SCT025 OVC060
     FM181800 27012G18KT P6SM SCT035 BKN060=



000
FTUS45 KTWC 172300
TAFDUG
TAF
KDUG 172325Z 1800/1824 14009KT P6SM -SHRA SCT030 OVC080
     FM180200 18010KT 5SM -SHRA SCT015 BKN040
     FM180600 14008KT 4SM -SHRA BKN020 OVC040
     FM181600 21012G18KT P6SM -SHRA SCT020 OVC050=



000
FTUS45 KTWC 172300
TAFOLS
TAF
KOLS 172325Z 1800/1824 15008KT 5SM -SHRA FEW005 BKN050
      TEMPO 1800/1802 1SM +SHRA SCT005 BKN030 OVC050
     FM180600 16014G22KT 5SM -SHRA BKN020 OVC040
     FM181300 22012G18KT P6SM -SHRA BKN025 OVC050
     FM181800 21010KT P6SM SCT030 BKN050=



000
FTUS45 KTWC 172300
TAFOLS
TAF
KOLS 172325Z 1800/1824 15008KT 5SM -SHRA FEW005 BKN050
      TEMPO 1800/1802 1SM +SHRA SCT005 BKN030 OVC050
     FM180600 16014G22KT 5SM -SHRA BKN020 OVC040
     FM181300 22012G18KT P6SM -SHRA BKN025 OVC050
     FM181800 21010KT P6SM SCT030 BKN050=



000
FTUS45 KTWC 172200 AAA
TAFDUG
TAF AMD
KDUG 172229Z 1722/1818 14009KT P6SM SCT030 OVC080
      TEMPO 1722/1802 3SM SHRA SCT005 BKN020 OVC035
     FM180400 18010KT P6SM SHRA BKN025 BKN040
     FM181500 19012KT P6SM -SHRA BKN030 OVC050=



000
FTUS45 KTWC 172200 AAB
TAFOLS
TAF AMD
KOLS 172219Z 1722/1818 17011G18KT P6SM SHRA SCT020 OVC060
      TEMPO 1722/1801 1SM +SHRA SCT005 BKN020 OVC035
     FM180600 16019G27KT P6SM -SHRA BKN025 BKN040
     FM181300 22012G18KT P6SM -SHRA BKN022 OVC050=



000
FTUS45 KTWC 172200 AAB
TAFOLS
TAF AMD
KOLS 172219Z 1722/1818 17011G18KT P6SM SHRA SCT020 OVC060
      TEMPO 1722/1801 1SM +SHRA SCT005 BKN020 OVC035
     FM180600 16019G27KT P6SM -SHRA BKN025 BKN040
     FM181300 22012G18KT P6SM -SHRA BKN022 OVC050=



000
FTUS45 KTWC 172200 AAA
TAFTUS
TAF AMD
KTUS 172209Z 1722/1818 12011KT P6SM FEW025 SCT045 OVC060
      TEMPO 1723/1802 SHRA SCT015 BKN040
     FM180600 14016G24KT P6SM -SHRA SCT025 BKN040
     FM181100 18012G18KT P6SM -SHRA FEW012 SCT025 OVC045=



000
FTUS45 KTWC 172200 AAA
TAFOLS
TAF AMD
KOLS 172202Z 1722/1818 17011G18KT P6SM SHRA SCT020 OVC050
      TEMPO 1722/1802 4SM +SHRA SCT005 BKN020 OVC035
     FM180600 16019G27KT P6SM -SHRA BKN025 BKN040
     FM181300 22012G18KT P6SM -SHRA BKN022 OVC050=



000
FTUS45 KTWC 172200 AAA
TAFOLS
TAF AMD
KOLS 172202Z 1722/1818 17011G18KT P6SM SHRA SCT020 OVC050
      TEMPO 1722/1802 4SM +SHRA SCT005 BKN020 OVC035
     FM180600 16019G27KT P6SM -SHRA BKN025 BKN040
     FM181300 22012G18KT P6SM -SHRA BKN022 OVC050=



000
FTUS45 KTWC 171700
TAFDUG
TAF
KDUG 171737Z 1718/1818 12009KT P6SM SCT030 OVC060
     FM172000 18013G20KT P6SM -SHRA SCT020 OVC040
      TEMPO 1722/1802 4SM TSRA SCT005 BKN020 OVC035CB
     FM180400 18010KT P6SM SHRA BKN025 BKN040
     FM181500 19012KT P6SM -SHRA BKN030 OVC050=



000
FTUS45 KTWC 171700
TAFOLS
TAF
KOLS 171737Z 1718/1818 16010KT P6SM -SHRA SCT025 OVC045
      TEMPO 1718/1722 5SM SHRA FEW009 BKN025 OVC050
     FM172200 15016G22KT P6SM -SHRA SCT020 OVC035
      TEMPO 1722/1802 4SM SHRA SCT005 BKN020 OVC035
     FM180600 16019G27KT P6SM -SHRA BKN025 BKN040
     FM181300 22012G18KT P6SM -SHRA BKN022 OVC050=



000
FTUS45 KTWC 171700
TAFOLS
TAF
KOLS 171737Z 1718/1818 16010KT P6SM -SHRA SCT025 OVC045
      TEMPO 1718/1722 5SM SHRA FEW009 BKN025 OVC050
     FM172200 15016G22KT P6SM -SHRA SCT020 OVC035
      TEMPO 1722/1802 4SM SHRA SCT005 BKN020 OVC035
     FM180600 16019G27KT P6SM -SHRA BKN025 BKN040
     FM181300 22012G18KT P6SM -SHRA BKN022 OVC050=



000
FTUS45 KTWC 171700
TAFTUS
TAF
KTUS 171737Z 1718/1818 12011KT P6SM -SHRA FEW025 SCT050 OVC070
     FM172000 13013G18KT P6SM SHRA SCT025 BKN040 OVC060
      TEMPO 1722/1802 4SM TSRA SCT015 BKN030CB
     FM180600 14016G24KT P6SM -SHRA SCT025 BKN040
     FM181100 18012G18KT P6SM -SHRA FEW012 SCT025 OVC045=



000
FTUS45 KTWC 171600 AAA
TAFOLS
TAF AMD
KOLS 171623Z 1716/1812 VRB06KT P6SM -SHRA SCT025 OVC050
      TEMPO 1716/1720 5SM SHRA BKN025 OVC050
     FM172000 15016G22KT 4SM SHRA BKN020 OVC030
      TEMPO 1720/1724 3SM TSRA SCT005 BKN015 OVC030CB
     FM180400 16019G27KT P6SM -SHRA BKN025 BKN040=



000
FTUS45 KTWC 171600 AAA
TAFOLS
TAF AMD
KOLS 171623Z 1716/1812 VRB06KT P6SM -SHRA SCT025 OVC050
      TEMPO 1716/1720 5SM SHRA BKN025 OVC050
     FM172000 15016G22KT 4SM SHRA BKN020 OVC030
      TEMPO 1720/1724 3SM TSRA SCT005 BKN015 OVC030CB
     FM180400 16019G27KT P6SM -SHRA BKN025 BKN040=



000
FTUS45 KTWC 171100
TAFOLS
TAF
KOLS 171135Z 1712/1812 14003KT P6SM -SHRA SCT025 OVC040
     FM171600 14012KT P6SM SHRA SCT015 OVC025
     FM171800 15016G22KT 4SM SHRA BKN020 OVC030
      TEMPO 1720/1801 3SM TSRA SCT005 BKN015 OVC030CB
     FM180400 16019G27KT P6SM -SHRA BKN025 BKN040=



000
FTUS45 KTWC 171100
TAFTUS
TAF
KTUS 171135Z 1712/1812 14010KT P6SM VCSH SCT080 OVC100
     FM171700 12012KT P6SM -SHRA FEW025 SCT050 OVC070
     FM172000 13012KT P6SM SHRA SCT025 BKN040 OVC060
      TEMPO 1722/1802 4SM TSRA SCT015 BKN030CB
     FM180600 14016G24KT P6SM -SHRA SCT025 BKN040=



000
FTUS45 KTWC 171100
TAFOLS
TAF
KOLS 171135Z 1712/1812 14003KT P6SM -SHRA SCT025 OVC040
     FM171600 14012KT P6SM SHRA SCT015 OVC025
     FM171800 15016G22KT 4SM SHRA BKN020 OVC030
      TEMPO 1720/1801 3SM TSRA SCT005 BKN015 OVC030CB
     FM180400 16019G27KT P6SM -SHRA BKN025 BKN040=



000
FTUS45 KTWC 171100
TAFDUG
TAF
KDUG 171135Z 1712/1812 10011KT P6SM VCSH SCT030 BKN050
     FM171700 12009KT P6SM -SHRA SCT020 OVC030
     FM172000 18013G20KT 4SM SHRA BKN020 OVC030
      TEMPO 1722/1802 4SM TSRA SCT005 BKN015 OVC030CB
     FM180400 18010KT P6SM -SHRA BKN025 BKN040=



000
FTUS45 KTWC 170800 AAA
TAFOLS
TAF AMD
KOLS 170846Z 1709/1806 14009KT P6SM -SHRA SCT025 OVC035
      TEMPO 1709/1713 5SM SHRA FEW015 OVC025
     FM171300 12012KT P6SM SHRA SCT015 OVC025
     FM171800 15014G24KT 4SM SHRA BKN020 OVC030=



000
FTUS45 KTWC 170800 AAA
TAFOLS
TAF AMD
KOLS 170846Z 1709/1806 14009KT P6SM -SHRA SCT025 OVC035
      TEMPO 1709/1713 5SM SHRA FEW015 OVC025
     FM171300 12012KT P6SM SHRA SCT015 OVC025
     FM171800 15014G24KT 4SM SHRA BKN020 OVC030=



000
FTUS45 KTWC 170500
TAFOLS
TAF
KOLS 170533Z 1706/1806 12011KT P6SM -SHRA BKN060 OVC100
      TEMPO 1706/1710 SHRA SCT035 OVC050
     FM171000 12012KT P6SM SHRA BKN030 OVC040
     FM171800 15014G24KT 4SM SHRA BKN020 OVC030=



000
FTUS45 KTWC 170500
TAFOLS
TAF
KOLS 170533Z 1706/1806 12011KT P6SM -SHRA BKN060 OVC100
      TEMPO 1706/1710 SHRA SCT035 OVC050
     FM171000 12012KT P6SM SHRA BKN030 OVC040
     FM171800 15014G24KT 4SM SHRA BKN020 OVC030=



000
FTUS45 KTWC 170500
TAFTUS
TAF
KTUS 170533Z 1706/1806 09010KT P6SM VCSH SCT070 OVC090
      TEMPO 1706/1710 -SHRA SCT050 OVC080
     FM171000 13012KT P6SM -SHRA SCT050 OVC070
     FM171400 13012KT P6SM SHRA BKN040 OVC060=



000
FTUS45 KTWC 170500
TAFDUG
TAF
KDUG 170533Z 1706/1806 07011KT P6SM SCT060 OVC100
      TEMPO 1706/1710 -SHRA SCT040 BKN070
     FM171000 11008KT P6SM -SHRA SCT035 OVC050
     FM171600 15010KT P6SM SHRA BKN025 OVC035=



000
FTUS45 KTWC 170400 AAA
TAFDUG
TAF AMD
KDUG 170407Z 1704/1724 07012KT P6SM -SHRA SCT060 OVC100
      TEMPO 1704/1708 3SM SHRA SCT040 BKN060
     FM170800 11008KT P6SM -SHRA SCT025 OVC040
     FM171600 14010KT P6SM SHRA BKN025 OVC035=



000
FTUS45 KTWC 170300 AAA
TAFTUS
TAF AMD
KTUS 170359Z 1704/1724 14009KT P6SM VCSH SCT070 OVC100
      TEMPO 1704/1708 -SHRA SCT060 OVC090
     FM171400 13012KT P6SM SHRA BKN040 OVC060=



000
FTUS45 KTWC 170300 AAA
TAFTUS
TAF AMD
KTUS 170359Z 1704/1724 14009KT P6SM VCSH SCT070 OVC100
      TEMPO 1704/1708 -SHRA SCT060 OVC090
     FM171400 13012KT P6SM SHRA BKN040 OVC060=



000
FTUS45 KTWC 162300
TAFTUS
TAF
KTUS 162333Z 1700/1724 08010KT P6SM SCT110 OVC140
     FM170400 14009KT P6SM VCSH SCT080 OVC100
      TEMPO 1710/1714 -SHRA SCT040 OVC060
     FM171400 13012KT P6SM SHRA BKN040 OVC060=



000
FTUS45 KTWC 162300
TAFOLS
TAF
KOLS 162333Z 1700/1724 09011KT P6SM BKN110 OVC130
     FM170300 10008KT P6SM VCSH SCT040 OVC080
      TEMPO 1708/1712 -SHRA SCT025 OVC040
     FM171200 12010KT P6SM SHRA BKN030 OVC040=



000
FTUS45 KTWC 162300
TAFDUG
TAF
KDUG 162333Z 1700/1724 07010KT P6SM -SHRA SCT040 OVC120
     FM170800 11008KT P6SM -SHRA SCT025 OVC040
     FM171600 14010KT P6SM SHRA BKN025 OVC035=



000
FTUS45 KTWC 162300
TAFOLS
TAF
KOLS 162333Z 1700/1724 09011KT P6SM BKN110 OVC130
     FM170300 10008KT P6SM VCSH SCT040 OVC080
      TEMPO 1708/1712 -SHRA SCT025 OVC040
     FM171200 12010KT P6SM SHRA BKN030 OVC040=



000
FTUS45 KTWC 161700
TAFOLS
TAF
KOLS 161736Z 1618/1718 02010KT P6SM VCSH FEW060 SCT090 OVC110
     FM162000 09010KT P6SM VCSH BKN080 OVC110
      TEMPO 1622/1624 -TSRA BKN050 OVC070CB
     FM170000 14009KT P6SM -SHRA BKN040 OVC060
     FM170600 12008KT P6SM -SHRA BKN035 OVC050
      TEMPO 1706/1710 -TSRA BKN030CB OVC050
     FM171200 09007KT P6SM -SHRA BKN035 OVC050=



000
FTUS45 KTWC 161700
TAFDUG
TAF
KDUG 161736Z 1618/1718 08010KT P6SM VCSH SCT060 OVC080
      TEMPO 1620/1622 -TSRA BKN060CB
     FM162200 10012KT P6SM -SHRA BKN060 OVC080
      TEMPO 1622/1624 -TSRA BKN035 OVC050CB
     FM170000 10008KT P6SM -SHRA BKN035 OVC050
     FM170600 12007KT P6SM -SHRA BKN025 OVC040
      TEMPO 1706/1710 -TSRA BKN020CB OVC040
     FM171200 11012KT P6SM -SHRA BKN030 OVC050=



000
FTUS45 KTWC 161700
TAFTUS
TAF
KTUS 161736Z 1618/1718 16005KT P6SM -SHRA SCT080 OVC100
      TEMPO 1622/1624 -TSRA BKN080CB
     FM170000 12009KT P6SM -SHRA BKN050 OVC080
     FM170600 14012KT P6SM -SHRA SCT040 BKN060 OVC080
      TEMPO 1708/1712 -TSRA BKN040CB OVC060
     FM171200 13010KT P6SM SHRA BKN040 OVC060=



000
FTUS45 KTWC 161100 RRA
TAFDUG
TAF
KDUG 161140Z 1612/1712 34007KT P6SM VCSH SCT050 BKN080
     FM161400 09007KT P6SM SCT050 BKN070
     FM161700 12011KT P6SM VCSH SCT050 BKN070
     FM162200 13010KT P6SM -SHRA BKN040 OVC060
      TEMPO 1622/1624 -TSRA BKN035 OVC050CB=



000
FTUS45 KTWC 161100 RRA
TAFTUS
TAF
KTUS 161140Z 1612/1712 13014KT P6SM -SHRA SCT080 BKN100
     FM161300 11013KT P6SM SCT070 BKN090
     FM161700 10011KT P6SM VCSH SCT050 BKN080
     FM170000 12009KT P6SM -SHRA BKN050 OVC080=



000
FTUS45 KTWC 161100 RRA
TAFOLS
TAF
KOLS 161140Z 1612/1712 VRB04KT 5SM -SHRA BR SCT060 BKN090
     FM161300 11013KT P6SM SCT060 BKN090
     FM161700 13011KT P6SM -SHRA BKN050 BKN080
      TEMPO 1622/1624 -TSRA BKN040 OVC060CB
     FM170000 14009KT P6SM -SHRA BKN040 OVC070=



000
FTUS45 KTWC 161100 RRA
TAFOLS
TAF
KOLS 161140Z 1612/1712 VRB04KT 5SM -SHRA BR SCT060 BKN090
     FM161300 11013KT P6SM SCT060 BKN090
     FM161700 13011KT P6SM -SHRA BKN050 BKN080
      TEMPO 1622/1624 -TSRA BKN040 OVC060CB
     FM170000 14009KT P6SM -SHRA BKN040 OVC070=



000
FTUS45 KTWC 160800 AAC
TAFOLS
TAF AMD
KOLS 160855Z 1609/1706 15010G18KT P6SM -SHRA BKN050 BKN090
     FM161200 15010KT P6SM VCSH SCT050 BKN100
      TEMPO 1612/1614 -SHRA BKN050
     FM161400 12012KT P6SM -SHRA BKN050=



000
FTUS45 KTWC 160800 AAC
TAFOLS
TAF AMD
KOLS 160855Z 1609/1706 15010G18KT P6SM -SHRA BKN050 BKN090
     FM161200 15010KT P6SM VCSH SCT050 BKN100
      TEMPO 1612/1614 -SHRA BKN050
     FM161400 12012KT P6SM -SHRA BKN050=



000
FTUS45 KTWC 160800 AAB
TAFOLS
TAF AMD
KOLS 160837Z 1609/1706 13006KT P6SM -SHRA BKN050 BKN090
     FM161200 15010KT P6SM VCSH SCT050 BKN100
      TEMPO 1612/1614 -SHRA BKN050
     FM161400 12012KT P6SM -SHRA BKN050=



000
FTUS45 KTWC 160800 AAB
TAFOLS
TAF AMD
KOLS 160837Z 1609/1706 13006KT P6SM -SHRA BKN050 BKN090
     FM161200 15010KT P6SM VCSH SCT050 BKN100
      TEMPO 1612/1614 -SHRA BKN050
     FM161400 12012KT P6SM -SHRA BKN050=



000
FTUS45 KTWC 160800 AAA
TAFOLS
TAF AMD
KOLS 160815Z 1608/1706 15006KT P6SM -SHRA BKN100
     FM161000 15010KT P6SM VCSH SCT050 BKN100
      TEMPO 1610/1614 -SHRA BKN050
     FM161400 12012KT P6SM -SHRA BKN050=



000
FTUS45 KTWC 160800 AAA
TAFOLS
TAF AMD
KOLS 160815Z 1608/1706 15006KT P6SM -SHRA BKN100
     FM161000 15010KT P6SM VCSH SCT050 BKN100
      TEMPO 1610/1614 -SHRA BKN050
     FM161400 12012KT P6SM -SHRA BKN050=



000
FTUS45 KTWC 160800 AAA
TAFDUG
TAF AMD
KDUG 160814Z 1608/1706 15008KT P6SM -SHRA BKN100
     FM161000 11010KT P6SM VCSH SCT050 BKN100
      TEMPO 1610/1614 -SHRA BKN050
     FM161500 12013KT P6SM -SHRA BKN050=



000
FTUS45 KTWC 160800 AAD
TAFTUS
TAF AMD
KTUS 160813Z 1608/1706 14011KT P6SM BKN100
     FM161100 13012KT P6SM VCSH BKN100
     FM161700 12013KT P6SM -SHRA SCT050 BKN080=



000
FTUS45 KTWC 160700 AAC
TAFTUS
TAF AMD
KTUS 160730Z 1608/1706 17010KT P6SM VCSH SCT080 BKN120
     FM160800 18010KT P6SM BKN100
     FM161100 13012KT P6SM VCSH BKN100
     FM161700 12013KT P6SM -SHRA SCT050 BKN080=



000
FTUS45 KTWC 160700 AAB
TAFTUS
TAF AMD
KTUS 160711Z 1607/1706 17010KT P6SM VCTS SCT080 BKN120CB
      TEMPO 1607/1608 VRB15G30KT -TSRA BKN080CB
     FM160800 18010KT P6SM BKN100
     FM161100 13012KT P6SM VCSH BKN100
     FM161700 12013KT P6SM -SHRA SCT050 BKN080=



000
FTUS45 KTWC 160600 AAA
TAFTUS
TAF AMD
KTUS 160653Z 1607/1706 17010KT P6SM VCTS SCT080 BKN120CB
     FM160800 18010KT P6SM BKN100
     FM161100 13012KT P6SM VCSH BKN100
     FM161700 12013KT P6SM -SHRA SCT050 BKN080=



000
FTUS45 KTWC 160500
TAFOLS
TAF
KOLS 160531Z 1606/1706 15006KT P6SM BKN100
     FM160900 15010KT P6SM VCSH SCT050 BKN100
      TEMPO 1610/1614 -SHRA BKN050
     FM161400 12012KT P6SM -SHRA BKN050=



000
FTUS45 KTWC 160500
TAFOLS
TAF
KOLS 160531Z 1606/1706 15006KT P6SM BKN100
     FM160900 15010KT P6SM VCSH SCT050 BKN100
      TEMPO 1610/1614 -SHRA BKN050
     FM161400 12012KT P6SM -SHRA BKN050=



000
FTUS45 KTWC 160500
TAFTUS
TAF
KTUS 160531Z 1606/1706 17010KT P6SM SCT080 BKN150
     FM161100 13012KT P6SM VCSH BKN100
     FM161700 12013KT P6SM -SHRA SCT050 BKN080=



000
FTUS45 KTWC 160500
TAFDUG
TAF
KDUG 160531Z 1606/1706 15012KT P6SM VCSH BKN100
     FM160900 11010KT P6SM VCSH SCT050 BKN100
      TEMPO 1610/1614 -SHRA BKN050
     FM161500 12013KT P6SM -SHRA BKN050=



000
FTUS45 KTWC 160200 AAB
TAFOLS
TAF AMD
KOLS 160245Z 1603/1624 17006KT P6SM VCSH SCT060 OVC150
     FM160800 15010KT P6SM VCSH SCT050 BKN090 OVC180
      TEMPO 1610/1614 -SHRA
     FM161900 12012KT P6SM -SHRA SCT050 BKN100=



000
FTUS45 KTWC 160200 AAB
TAFOLS
TAF AMD
KOLS 160245Z 1603/1624 17006KT P6SM VCSH SCT060 OVC150
     FM160800 15010KT P6SM VCSH SCT050 BKN090 OVC180
      TEMPO 1610/1614 -SHRA
     FM161900 12012KT P6SM -SHRA SCT050 BKN100=



000
FTUS45 KTWC 160200 AAA
TAFOLS
TAF AMD
KOLS 160200Z 1602/1624 17006KT P6SM VCTS BKN070CB BKN110 OVC180
      TEMPO 1602/1603 VRB15G25KT P6SM TSRA BKN060CB OVC110
     FM160330 VRB05KT P6SM VCSH SCT060 OVC180
     FM160800 15010KT P6SM VCSH SCT050 BKN090 OVC180
      TEMPO 1610/1614 -SHRA
     FM161900 12012KT P6SM -SHRA SCT050 BKN100=



000
FTUS45 KTWC 160200 AAA
TAFOLS
TAF AMD
KOLS 160200Z 1602/1624 17006KT P6SM VCTS BKN070CB BKN110 OVC180
      TEMPO 1602/1603 VRB15G25KT P6SM TSRA BKN060CB OVC110
     FM160330 VRB05KT P6SM VCSH SCT060 OVC180
     FM160800 15010KT P6SM VCSH SCT050 BKN090 OVC180
      TEMPO 1610/1614 -SHRA
     FM161900 12012KT P6SM -SHRA SCT050 BKN100=



000
FTUS45 KTWC 160100 AAA
TAFDUG
TAF AMD
KDUG 160156Z 1602/1624 15012KT P6SM SCT070 OVC200
     FM160500 14007KT P6SM -SHRA SCT060 BKN100
     FM160900 11006KT P6SM -SHRA BKN050 OVC090
     FM161700 12013KT P6SM SHRA BKN045 BKN080=



000
FTUS45 KTWC 160100 AAA
TAFTUS
TAF AMD
KTUS 160106Z 1601/1624 17012KT P6SM SCT080 OVC250
     FM160900 14008KT P6SM VCSH BKN070 OVC150 PROB30 1610/1618 -SHRA
     FM161800 12011KT P6SM VCSH BKN050 BKN120 PROB30 1618/1624 SHRA=



000
FTUS45 KTWC 152300
TAFOLS
TAF
KOLS 152323Z 1600/1624 20008KT P6SM VCTS BKN070CB BKN110 OVC180
      TEMPO 1600/1602 VRB15G25KT P6SM TSRA BKN060CB OVC110
     FM160200 VRB05KT P6SM VCSH SCT060 OVC180
     FM160800 15010KT P6SM VCSH SCT050 BKN090 OVC180 PROB30
      1610/1619 -SHRA
     FM161900 12012KT P6SM -SHRA SCT050 BKN100=



000
FTUS45 KTWC 152300
TAFTUS
TAF
KTUS 152323Z 1600/1624 14005KT P6SM VCSH SCT080 OVC200
     FM160900 14008KT P6SM VCSH BKN070 OVC150 PROB30 1609/1618 -SHRA
     FM161800 12011KT P6SM VCSH BKN050 BKN120 PROB30 1618/1624 SHRA=



000
FTUS45 KTWC 152300
TAFDUG
TAF
KDUG 152323Z 1600/1624 11008KT P6SM VCTS SCT070CB OVC200
      TEMPO 1600/1602 VRB15G25KT P6SM TSRA BKN060CB OVC200
     FM160500 09007KT P6SM -SHRA SCT060 BKN100
     FM160900 11006KT P6SM -SHRA BKN050 OVC090
     FM161700 12013KT P6SM SHRA BKN045 BKN080=



000
FTUS45 KTWC 152300
TAFOLS
TAF
KOLS 152323Z 1600/1624 20008KT P6SM VCTS BKN070CB BKN110 OVC180
      TEMPO 1600/1602 VRB15G25KT P6SM TSRA BKN060CB OVC110
     FM160200 VRB05KT P6SM VCSH SCT060 OVC180
     FM160800 15010KT P6SM VCSH SCT050 BKN090 OVC180 PROB30
      1610/1619 -SHRA
     FM161900 12012KT P6SM -SHRA SCT050 BKN100=



000
FTUS45 KTWC 152200 AAA
TAFOLS
TAF AMD
KOLS 152243Z 1523/1618 15007KT P6SM VCTS FEW080CB BKN110
      TEMPO 1523/1602 VRB15G25KT P6SM TSRA BKN060CB OVC110
     FM160200 VRB05KT P6SM VCSH SCT060 OVC200
     FM160600 15010KT P6SM -SHRA SCT050 BKN090 OVC180=



000
FTUS45 KTWC 152200 AAA
TAFOLS
TAF AMD
KOLS 152243Z 1523/1618 15007KT P6SM VCTS FEW080CB BKN110
      TEMPO 1523/1602 VRB15G25KT P6SM TSRA BKN060CB OVC110
     FM160200 VRB05KT P6SM VCSH SCT060 OVC200
     FM160600 15010KT P6SM -SHRA SCT050 BKN090 OVC180=



    US Dept of Commerce
    National Oceanic and Atmospheric Administration
    National Weather Service
    1325 East West Highway
    Silver Spring, MD 20910
    Page Author: NWS Internet Services Team
Disclaimer
Information Quality
Credits
Glossary
Privacy Policy
Freedom of Information Act (FOIA)
About Us
Career Opportunities